Time;durP1;ratioP1;P1;durP2;ratioP2;P2;SDS_P1;SDS_P2;PMS_P1;PMS_P2;Temp;Humidity;BMP_temperature;BMP_pressure;BME280_temperature;BME280_humidity;BME280_pressure;Samples;Min_cycle;Max_cycle;Signal;HPM_P1;HPM_P2
2023/08/14 00:00:52;;;;;;;6.13;4.78;;;;;;;;;;4986419;28;20653;-68
2023/08/14 00:03:18;;;;;;;6.55;5.25;;;;;;;;;;4984923;28;20191;-68
2023/08/14 00:05:43;;;;;;;8.02;3.88;;;;;;;;;;4986268;28;20286;-68
2023/08/14 00:08:08;;;;;;;10.23;5.40;;;;;;;;;;4969184;28;20195;-67
2023/08/14 00:10:34;;;;;;;8.73;5.15;;;;;;;;;;4983639;28;21116;-67
2023/08/14 00:12:59;;;;;;;7.22;4.15;;;;;;;;;;4988439;28;20203;-67
2023/08/14 00:15:24;;;;;;;8.10;4.80;;;;;;;;;;4987559;28;20760;-68
2023/08/14 00:17:51;;;;;;;7.88;4.68;;;;;;;;;;4985359;28;20959;-67
2023/08/14 00:20:16;;;;;;;7.05;4.30;;;;;;;;;;4966904;28;20188;-67
2023/08/14 00:22:41;;;;;;;5.50;4.43;;;;;;;;;;4986858;28;20187;-67
2023/08/14 00:25:07;;;;;;;7.75;4.82;;;;;;;;;;4987094;28;20251;-67
2023/08/14 00:27:32;;;;;;;10.90;5.03;;;;;;;;;;4972311;28;20203;-67
2023/08/14 00:29:57;;;;;;;5.32;4.00;;;;;;;;;;4986624;28;20662;-69
2023/08/14 00:32:22;;;;;;;5.93;4.35;;;;;;;;;;4986855;28;20186;-67
2023/08/14 00:34:47;;;;;;;6.82;4.57;;;;;;;;;;4989634;28;20283;-67
2023/08/14 00:37:13;;;;;;;5.68;4.78;;;;;;;;;;4987185;28;20187;-67
2023/08/14 00:39:38;;;;;;;7.35;4.45;;;;;;;;;;4971129;28;20657;-67
2023/08/14 00:42:03;;;;;;;6.60;5.00;;;;;;;;;;4973057;28;20191;-69
2023/08/14 00:44:30;;;;;;;7.13;4.13;;;;;;;;;;4988824;28;20231;-67
2023/08/14 00:46:55;;;;;;;12.98;5.68;;;;;;;;;;4989947;28;20187;-68
2023/08/14 00:49:20;;;;;;;9.60;5.93;;;;;;;;;;4990652;28;20191;-67
2023/08/14 00:51:46;;;;;;;9.13;5.78;;;;;;;;;;4988968;28;20191;-68
2023/08/14 00:54:11;;;;;;;9.02;6.22;;;;;;;;;;4972816;28;20695;-68
2023/08/14 00:56:37;;;;;;;8.18;5.13;;;;;;;;;;4986597;28;20226;-68
2023/08/14 00:59:02;;;;;;;9.30;6.32;;;;;;;;;;4991560;28;20216;-68
2023/08/14 01:01:27;;;;;;;9.32;5.82;;;;;;;;;;4989070;28;20285;-68
2023/08/14 01:03:53;;;;;;;7.57;5.30;;;;;;;;;;4988507;28;20708;-68
2023/08/14 01:06:18;;;;;;;8.25;5.82;;;;;;;;;;4971856;28;20258;-68
2023/08/14 01:08:43;;;;;;;11.52;5.88;;;;;;;;;;4991570;28;20195;-68
2023/08/14 01:11:16;;;;;;;8.15;5.70;;;;;;;;;;4973001;28;20559;-68
2023/08/14 01:13:41;;;;;;;10.35;5.43;;;;;;;;;;4986049;28;20306;-68
2023/08/14 01:16:11;;;;;;;12.32;5.50;;;;;;;;;;4989769;28;20186;-68
2023/08/14 01:18:38;;;;;;;6.10;4.47;;;;;;;;;;4987086;28;20911;-67
2023/08/14 01:21:23;;;;;;;11.57;5.95;;;;;;;;;;4988923;28;20190;-68
2023/08/14 01:24:06;;;;;;;12.50;5.70;;;;;;;;;;4987303;28;20826;-67
2023/08/14 01:26:33;;;;;;;9.02;5.63;;;;;;;;;;4988325;28;20669;-67
2023/08/14 01:28:58;;;;;;;12.02;5.45;;;;;;;;;;4989114;28;20971;-67
2023/08/14 01:31:23;;;;;;;13.43;7.00;;;;;;;;;;4989549;28;20221;-67
2023/08/14 01:33:48;;;;;;;11.73;6.07;;;;;;;;;;4990421;28;20237;-67
2023/08/14 01:36:26;;;;;;;14.75;5.88;;;;;;;;;;4987465;28;20195;-67
2023/08/14 01:38:57;;;;;;;7.65;5.68;;;;;;;;;;4990597;28;20187;-68
2023/08/14 01:41:25;;;;;;;10.32;5.53;;;;;;;;;;4988695;28;20180;-67
2023/08/14 01:43:52;;;;;;;14.27;5.43;;;;;;;;;;4972939;28;20778;-67
2023/08/14 01:46:18;;;;;;;8.13;5.15;;;;;;;;;;4971181;28;20969;-67
2023/08/14 01:48:44;;;;;;;8.77;4.97;;;;;;;;;;4989274;28;20266;-67
2023/08/14 01:51:10;;;;;;;10.82;5.90;;;;;;;;;;4988343;28;20190;-67
2023/08/14 01:53:36;;;;;;;13.00;5.55;;;;;;;;;;4972420;28;20700;-67
2023/08/14 01:56:01;;;;;;;12.07;6.03;;;;;;;;;;4989843;28;20184;-67
2023/08/14 01:58:27;;;;;;;7.40;5.20;;;;;;;;;;4989257;28;20180;-67
2023/08/14 02:00:52;;;;;;;9.82;5.53;;;;;;;;;;4986967;28;20187;-67
2023/08/14 02:03:17;;;;;;;10.60;5.88;;;;;;;;;;4970380;28;20828;-67
2023/08/14 02:05:42;;;;;;;17.75;6.03;;;;;;;;;;4987151;28;20215;-67
2023/08/14 02:08:08;;;;;;;10.82;6.22;;;;;;;;;;4988466;28;20666;-67
2023/08/14 02:10:33;;;;;;;8.95;4.90;;;;;;;;;;4988695;28;20282;-67
2023/08/14 02:12:58;;;;;;;7.22;5.60;;;;;;;;;;4989924;28;20213;-67
2023/08/14 02:15:23;;;;;;;9.73;5.50;;;;;;;;;;4989315;28;20294;-67
2023/08/14 02:17:48;;;;;;;10.57;5.90;;;;;;;;;;4989456;28;20190;-67
2023/08/14 02:20:14;;;;;;;9.02;6.07;;;;;;;;;;4988796;28;20267;-68
2023/08/14 02:22:39;;;;;;;10.43;5.80;;;;;;;;;;4985470;28;20188;-68
2023/08/14 02:25:04;;;;;;;14.35;6.88;;;;;;;;;;4987853;28;20211;-68
2023/08/14 02:27:29;;;;;;;15.75;6.47;;;;;;;;;;4988589;28;20246;-68
2023/08/14 02:29:55;;;;;;;10.13;5.93;;;;;;;;;;4989076;28;20194;-68
2023/08/14 02:32:20;;;;;;;15.73;7.63;;;;;;;;;;4988472;28;20190;-68
2023/08/14 02:34:46;;;;;;;9.57;5.72;;;;;;;;;;4968984;28;20302;-68
2023/08/14 02:37:12;;;;;;;8.93;6.28;;;;;;;;;;4967021;28;20662;-68
2023/08/14 02:39:37;;;;;;;13.18;6.22;;;;;;;;;;4986116;28;20282;-68
2023/08/14 02:42:03;;;;;;;12.30;7.05;;;;;;;;;;4988364;28;20197;-68
2023/08/14 02:44:29;;;;;;;13.63;6.50;;;;;;;;;;4982244;23;20415;-70
2023/08/14 02:46:55;;;;;;;10.07;5.43;;;;;;;;;;4988071;28;20317;-69
2023/08/14 02:49:21;;;;;;;8.90;6.10;;;;;;;;;;4987663;28;20190;-69
2023/08/14 02:51:46;;;;;;;11.98;7.82;;;;;;;;;;4988309;28;20179;-70
2023/08/14 02:54:11;;;;;;;12.95;7.75;;;;;;;;;;4986173;28;20215;-70
2023/08/14 02:56:36;;;;;;;10.35;7.53;;;;;;;;;;4987098;28;20911;-70
2023/08/14 02:59:02;;;;;;;14.90;7.55;;;;;;;;;;4986680;28;20838;-70
2023/08/14 03:01:27;;;;;;;12.98;7.90;;;;;;;;;;4987602;28;20188;-70
2023/08/14 03:03:52;;;;;;;12.93;7.95;;;;;;;;;;4986988;28;20306;-70
2023/08/14 03:06:17;;;;;;;14.07;8.05;;;;;;;;;;4986047;28;20274;-70
2023/08/14 03:08:43;;;;;;;12.73;6.88;;;;;;;;;;4986771;28;20334;-70
2023/08/14 03:11:08;;;;;;;9.07;6.32;;;;;;;;;;4987077;28;20187;-69
2023/08/14 03:13:33;;;;;;;10.85;6.85;;;;;;;;;;4986796;28;20214;-70
2023/08/14 03:15:58;;;;;;;12.00;7.10;;;;;;;;;;4986217;28;20208;-70
2023/08/14 03:18:24;;;;;;;12.00;6.72;;;;;;;;;;4986220;28;20254;-70
2023/08/14 03:20:49;;;;;;;13.43;6.85;;;;;;;;;;4988947;28;20198;-70
2023/08/14 03:23:14;;;;;;;14.80;7.10;;;;;;;;;;4987253;28;20233;-70
2023/08/14 03:25:39;;;;;;;11.38;6.65;;;;;;;;;;4982252;28;20787;-70
2023/08/14 03:28:05;;;;;;;13.25;7.57;;;;;;;;;;4987303;28;20706;-70
2023/08/14 03:30:30;;;;;;;11.65;6.45;;;;;;;;;;4986551;28;20195;-70
2023/08/14 03:32:55;;;;;;;10.85;6.65;;;;;;;;;;4986832;28;21014;-70
2023/08/14 03:35:20;;;;;;;10.77;6.47;;;;;;;;;;4986356;28;20644;-70
2023/08/14 03:37:46;;;;;;;12.00;6.25;;;;;;;;;;4986451;28;20187;-71
2023/08/14 03:40:11;;;;;;;11.23;6.82;;;;;;;;;;4987757;28;20219;-71
2023/08/14 03:42:36;;;;;;;10.85;6.93;;;;;;;;;;4987721;28;20291;-71
2023/08/14 03:45:01;;;;;;;14.40;7.47;;;;;;;;;;4986711;28;20609;-71
2023/08/14 03:47:27;;;;;;;14.48;7.80;;;;;;;;;;4987910;28;20664;-71
2023/08/14 03:49:52;;;;;;;10.65;6.68;;;;;;;;;;4986801;28;20563;-71
2023/08/14 03:52:17;;;;;;;9.75;6.63;;;;;;;;;;4986519;28;20314;-71
2023/08/14 03:54:42;;;;;;;15.50;7.15;;;;;;;;;;4983071;28;20708;-71
2023/08/14 03:57:07;;;;;;;9.20;6.22;;;;;;;;;;4985926;28;20191;-71
2023/08/14 03:59:33;;;;;;;10.95;7.55;;;;;;;;;;4988074;28;22094;-71
2023/08/14 04:01:58;;;;;;;10.48;6.95;;;;;;;;;;4991032;28;20182;-70
2023/08/14 04:04:23;;;;;;;13.07;6.88;;;;;;;;;;4990351;28;20214;-69
2023/08/14 04:06:49;;;;;;;17.50;8.77;;;;;;;;;;4991324;28;20567;-69
2023/08/14 04:09:15;;;;;;;10.27;6.40;;;;;;;;;;4989871;28;20276;-69
2023/08/14 04:11:40;;;;;;;10.80;6.35;;;;;;;;;;4990617;28;20189;-69
2023/08/14 04:14:05;;;;;;;15.48;7.20;;;;;;;;;;4991674;28;20855;-69
2023/08/14 04:16:46;;;;;;;9.20;6.95;;;;;;;;;;4992964;28;20676;-69
2023/08/14 04:19:12;;;;;;;13.18;6.63;;;;;;;;;;4991054;28;20174;-69
2023/08/14 04:21:37;;;;;;;11.70;6.70;;;;;;;;;;4991958;28;20215;-69
2023/08/14 04:24:03;;;;;;;9.80;6.30;;;;;;;;;;4988327;28;20269;-70
2023/08/14 04:26:28;;;;;;;11.40;7.70;;;;;;;;;;4989654;28;20661;-70
2023/08/14 04:28:54;;;;;;;11.70;6.47;;;;;;;;;;4989905;28;20184;-70
2023/08/14 04:31:19;;;;;;;13.30;6.88;;;;;;;;;;4990823;28;20891;-70
2023/08/14 04:33:45;;;;;;;11.70;6.38;;;;;;;;;;4991227;28;20208;-70
2023/08/14 04:36:10;;;;;;;9.93;7.10;;;;;;;;;;4988001;28;20269;-70
2023/08/14 04:38:35;;;;;;;10.35;6.78;;;;;;;;;;4988774;28;20676;-70
2023/08/14 04:41:00;;;;;;;13.85;7.93;;;;;;;;;;4990688;28;20202;-70
2023/08/14 04:43:25;;;;;;;10.63;6.25;;;;;;;;;;4990694;28;20190;-70
2023/08/14 04:45:51;;;;;;;13.82;7.25;;;;;;;;;;4990591;28;20223;-69
2023/08/14 04:48:16;;;;;;;15.00;6.20;;;;;;;;;;4990615;28;20187;-69
2023/08/14 04:50:41;;;;;;;9.40;6.65;;;;;;;;;;4987173;28;20613;-69
2023/08/14 04:53:06;;;;;;;14.38;7.90;;;;;;;;;;4990575;28;20214;-69
2023/08/14 04:55:32;;;;;;;12.02;7.80;;;;;;;;;;4989045;28;20863;-70
2023/08/14 04:57:57;;;;;;;11.77;7.80;;;;;;;;;;4989704;28;20285;-70
2023/08/14 05:00:22;;;;;;;12.25;7.30;;;;;;;;;;4991029;28;20215;-70
2023/08/14 05:02:47;;;;;;;11.70;6.90;;;;;;;;;;4991005;28;20194;-69
2023/08/14 05:05:13;;;;;;;12.95;7.68;;;;;;;;;;4985849;28;20289;-70
2023/08/14 05:07:38;;;;;;;12.80;6.72;;;;;;;;;;4987791;28;20270;-69
2023/08/14 05:10:03;;;;;;;11.77;7.45;;;;;;;;;;4981671;28;20940;-70
2023/08/14 05:12:29;;;;;;;11.88;7.35;;;;;;;;;;4989989;28;20295;-70
2023/08/14 05:14:54;;;;;;;12.25;6.93;;;;;;;;;;4988315;28;20210;-70
2023/08/14 05:17:19;;;;;;;15.60;7.90;;;;;;;;;;4989160;28;21052;-71
2023/08/14 05:19:44;;;;;;;11.88;7.72;;;;;;;;;;4988389;28;20222;-71
2023/08/14 05:22:09;;;;;;;12.45;8.27;;;;;;;;;;4987671;28;20184;-71
2023/08/14 05:24:35;;;;;;;12.15;6.70;;;;;;;;;;4988754;28;20216;-71
2023/08/14 05:27:00;;;;;;;13.18;7.50;;;;;;;;;;4989609;28;20197;-70
2023/08/14 05:29:25;;;;;;;18.42;8.88;;;;;;;;;;4989635;28;20306;-70
2023/08/14 05:31:50;;;;;;;14.63;7.63;;;;;;;;;;4987773;28;20321;-71
2023/08/14 05:34:16;;;;;;;11.20;7.25;;;;;;;;;;4989168;28;20260;-71
2023/08/14 05:36:41;;;;;;;12.95;6.93;;;;;;;;;;4988927;28;20273;-71
2023/08/14 05:39:08;;;;;;;8.88;5.68;;;;;;;;;;4986473;28;20188;-71
2023/08/14 05:41:34;;;;;;;11.77;6.18;;;;;;;;;;4987767;28;20190;-71
2023/08/14 05:43:59;;;;;;;9.40;6.40;;;;;;;;;;4987372;28;20219;-71
2023/08/14 05:46:24;;;;;;;12.38;7.90;;;;;;;;;;4989574;28;20230;-71
2023/08/14 05:48:50;;;;;;;12.27;7.30;;;;;;;;;;4989566;28;20277;-71
2023/08/14 05:51:15;;;;;;;9.93;6.15;;;;;;;;;;4988092;28;20183;-71
2023/08/14 05:53:40;;;;;;;11.52;6.97;;;;;;;;;;4986914;28;20218;-71
2023/08/14 05:56:05;;;;;;;10.15;6.80;;;;;;;;;;4988196;28;20204;-71
2023/08/14 05:58:30;;;;;;;9.45;6.90;;;;;;;;;;4989537;28;20183;-71
2023/08/14 06:00:56;;;;;;;12.52;7.68;;;;;;;;;;4984786;28;20397;-70
2023/08/14 06:03:21;;;;;;;9.38;6.32;;;;;;;;;;4988964;28;20187;-70
2023/08/14 06:05:46;;;;;;;10.23;5.93;;;;;;;;;;4987019;28;20293;-70
2023/08/14 06:08:11;;;;;;;9.32;5.95;;;;;;;;;;4984795;28;20237;-70
2023/08/14 06:10:38;;;;;;;8.95;5.90;;;;;;;;;;4984589;28;20223;-70
2023/08/14 06:13:03;;;;;;;8.93;6.05;;;;;;;;;;4985937;28;20215;-70
2023/08/14 06:15:28;;;;;;;8.07;6.20;;;;;;;;;;4988937;28;20199;-70
2023/08/14 06:17:54;;;;;;;8.82;6.05;;;;;;;;;;4988607;28;20212;-70
2023/08/14 06:20:20;;;;;;;6.30;5.60;;;;;;;;;;4988539;28;20588;-70
2023/08/14 06:22:49;;;;;;;9.02;5.18;;;;;;;;;;4987592;28;20183;-70
2023/08/14 06:25:15;;;;;;;7.95;4.82;;;;;;;;;;4985877;28;20214;-70
2023/08/14 06:27:41;;;;;;;7.80;5.70;;;;;;;;;;4987699;28;20195;-70
2023/08/14 06:30:08;;;;;;;10.30;6.40;;;;;;;;;;4986672;28;20558;-71
2023/08/14 06:32:33;;;;;;;9.15;5.63;;;;;;;;;;4989600;28;20989;-70
2023/08/14 06:34:59;;;;;;;9.60;6.10;;;;;;;;;;4987693;28;20908;-70
2023/08/14 06:37:24;;;;;;;8.32;5.90;;;;;;;;;;4988456;28;20656;-70
2023/08/14 06:39:49;;;;;;;10.45;6.57;;;;;;;;;;4986968;28;20182;-71
2023/08/14 06:42:14;;;;;;;10.07;6.25;;;;;;;;;;4985413;28;20187;-70
2023/08/14 06:44:40;;;;;;;8.77;4.38;;;;;;;;;;4987144;28;20234;-70
2023/08/14 06:47:05;;;;;;;8.20;5.30;;;;;;;;;;4987325;28;20195;-70
2023/08/14 06:49:31;;;;;;;7.75;5.25;;;;;;;;;;4989406;28;20179;-70
2023/08/14 06:51:56;;;;;;;7.15;4.82;;;;;;;;;;4987284;28;20237;-70
2023/08/14 06:54:21;;;;;;;8.27;5.18;;;;;;;;;;4989675;28;20218;-70
2023/08/14 06:56:46;;;;;;;7.18;5.13;;;;;;;;;;4987478;28;20214;-70
2023/08/14 06:59:12;;;;;;;5.30;3.88;;;;;;;;;;4989313;28;20332;-70
2023/08/14 07:01:37;;;;;;;6.87;4.67;;;;;;;;;;4983367;28;20627;-70
2023/08/14 07:04:02;;;;;;;7.32;4.72;;;;;;;;;;4988451;28;20440;-70
2023/08/14 07:06:27;;;;;;;10.20;4.60;;;;;;;;;;4986663;28;20187;-70
2023/08/14 07:08:53;;;;;;;6.72;4.28;;;;;;;;;;4986803;28;20667;-70
2023/08/14 07:11:18;;;;;;;6.05;4.28;;;;;;;;;;4987369;28;20631;-70
2023/08/14 07:13:43;;;;;;;6.93;3.80;;;;;;;;;;4988265;28;20724;-70
2023/08/14 07:16:09;;;;;;;8.35;5.22;;;;;;;;;;4986449;28;20199;-71
2023/08/14 07:18:34;;;;;;;7.45;4.55;;;;;;;;;;4985441;28;20187;-70
2023/08/14 07:20:59;;;;;;;9.80;4.57;;;;;;;;;;4986294;28;20989;-70
2023/08/14 07:23:24;;;;;;;6.28;4.60;;;;;;;;;;4988408;28;21933;-71
2023/08/14 07:25:49;;;;;;;9.00;3.75;;;;;;;;;;4988879;28;20682;-70
2023/08/14 07:28:15;;;;;;;7.55;4.30;;;;;;;;;;4983450;28;20661;-71
2023/08/14 07:30:40;;;;;;;8.18;4.40;;;;;;;;;;4985674;28;20684;-70
2023/08/14 07:33:07;;;;;;;4.72;3.30;;;;;;;;;;4985106;28;20233;-70
2023/08/14 07:35:33;;;;;;;6.03;3.90;;;;;;;;;;4986968;28;20207;-70
2023/08/14 07:37:58;;;;;;;5.22;3.38;;;;;;;;;;4985721;28;20190;-70
2023/08/14 07:40:23;;;;;;;7.20;3.42;;;;;;;;;;4986737;28;20184;-70
2023/08/14 07:42:48;;;;;;;8.57;3.97;;;;;;;;;;4987932;28;20179;-70
2023/08/14 07:45:14;;;;;;;5.75;3.42;;;;;;;;;;4985810;28;20890;-70
2023/08/14 07:47:39;;;;;;;5.30;3.45;;;;;;;;;;4985411;28;20727;-70
2023/08/14 07:50:04;;;;;;;5.90;3.88;;;;;;;;;;4988341;28;20539;-69
2023/08/14 07:52:30;;;;;;;7.97;3.35;;;;;;;;;;4984566;28;20731;-70
2023/08/14 07:54:57;;;;;;;5.63;3.70;;;;;;;;;;4984097;28;20249;-70
2023/08/14 07:57:22;;;;;;;5.88;3.17;;;;;;;;;;4985974;28;20699;-70
2023/08/14 07:59:47;;;;;;;5.43;3.63;;;;;;;;;;4987586;28;20191;-70
2023/08/14 08:02:12;;;;;;;6.60;3.60;;;;;;;;;;4983661;28;20190;-70
2023/08/14 08:04:37;;;;;;;8.75;3.10;;;;;;;;;;4983530;28;20453;-69
2023/08/14 08:07:03;;;;;;;6.63;3.63;;;;;;;;;;4986223;28;20183;-70
2023/08/14 08:09:29;;;;;;;6.60;3.30;;;;;;;;;;4986786;28;20283;-69
2023/08/14 08:11:54;;;;;;;4.93;2.78;;;;;;;;;;4987090;28;20190;-70
2023/08/14 08:14:19;;;;;;;6.18;3.60;;;;;;;;;;4989366;28;20605;-70
2023/08/14 08:16:45;;;;;;;5.65;2.55;;;;;;;;;;4985688;28;20191;-69
2023/08/14 08:19:10;;;;;;;7.97;3.00;;;;;;;;;;4988054;28;20182;-70
2023/08/14 08:21:36;;;;;;;3.53;2.78;;;;;;;;;;4988375;28;20184;-69
2023/08/14 08:24:02;;;;;;;6.32;2.70;;;;;;;;;;4987603;28;20278;-70
2023/08/14 08:26:27;;;;;;;4.85;2.42;;;;;;;;;;4988059;28;20180;-70
2023/08/14 08:28:52;;;;;;;8.43;3.10;;;;;;;;;;4981860;28;20187;-70
2023/08/14 08:31:17;;;;;;;6.85;2.60;;;;;;;;;;4987040;28;20238;-70
2023/08/14 08:33:43;;;;;;;5.82;3.20;;;;;;;;;;4986874;28;20219;-69
2023/08/14 08:36:08;;;;;;;4.97;2.97;;;;;;;;;;4988126;28;20210;-69
2023/08/14 08:38:33;;;;;;;7.43;3.45;;;;;;;;;;4985304;28;20586;-69
2023/08/14 08:41:00;;;;;;;5.97;3.08;;;;;;;;;;4987116;28;20191;-69
2023/08/14 08:43:26;;;;;;;5.20;2.95;;;;;;;;;;4987282;28;20580;-69
2023/08/14 08:45:53;;;;;;;6.22;2.53;;;;;;;;;;4998812;23;20231;-66
2023/08/14 08:48:21;;;;;;;4.78;2.78;;;;;;;;;;4991852;28;20198;-67
2023/08/14 08:50:47;;;;;;;5.28;2.78;;;;;;;;;;4992243;28;20658;-67
2023/08/14 08:53:13;;;;;;;6.35;2.17;;;;;;;;;;4991458;28;20222;-66
2023/08/14 08:55:39;;;;;;;7.43;2.75;;;;;;;;;;4991966;28;20202;-66
2023/08/14 08:58:05;;;;;;;6.85;2.35;;;;;;;;;;4991214;28;20187;-66
2023/08/14 09:00:30;;;;;;;5.65;2.65;;;;;;;;;;4991951;28;20906;-66
2023/08/14 09:02:56;;;;;;;10.00;2.85;;;;;;;;;;4986817;28;20185;-66
2023/08/14 09:05:21;;;;;;;6.60;2.95;;;;;;;;;;4989417;28;20199;-66
2023/08/14 09:07:46;;;;;;;4.38;2.53;;;;;;;;;;4991219;28;20198;-66
2023/08/14 09:10:12;;;;;;;7.00;2.92;;;;;;;;;;4990699;28;20559;-66
2023/08/14 09:12:37;;;;;;;6.07;2.03;;;;;;;;;;4991136;28;20242;-66
2023/08/14 09:15:04;;;;;;;5.32;2.63;;;;;;;;;;4991167;28;20203;-66
2023/08/14 09:17:29;;;;;;;7.38;2.63;;;;;;;;;;4991512;28;20219;-66
2023/08/14 09:19:55;;;;;;;6.75;2.70;;;;;;;;;;4991724;28;20325;-66
2023/08/14 09:22:20;;;;;;;5.85;2.55;;;;;;;;;;4991444;28;20586;-67
2023/08/14 09:24:47;;;;;;;8.95;2.40;;;;;;;;;;4990103;28;20215;-66
2023/08/14 09:27:13;;;;;;;8.38;3.42;;;;;;;;;;4987958;28;21046;-67
2023/08/14 09:29:38;;;;;;;5.57;2.90;;;;;;;;;;4991532;28;21047;-66
2023/08/14 09:32:04;;;;;;;7.47;3.00;;;;;;;;;;4991108;28;20184;-66
2023/08/14 09:34:30;;;;;;;9.25;2.92;;;;;;;;;;4989321;28;20250;-66
2023/08/14 09:36:56;;;;;;;5.57;2.40;;;;;;;;;;4984901;28;20657;-66
2023/08/14 09:39:23;;;;;;;8.48;2.95;;;;;;;;;;4990600;28;20199;-67
2023/08/14 09:41:49;;;;;;;5.10;2.05;;;;;;;;;;4989530;28;20189;-67
2023/08/14 09:44:14;;;;;;;4.75;1.60;;;;;;;;;;4989283;28;20187;-66
2023/08/14 09:46:39;;;;;;;6.28;2.08;;;;;;;;;;4990160;28;21021;-66
2023/08/14 09:49:05;;;;;;;4.90;1.83;;;;;;;;;;4989232;28;20187;-67
2023/08/14 09:51:31;;;;;;;5.30;1.95;;;;;;;;;;4990773;28;20176;-66
2023/08/14 09:53:57;;;;;;;6.18;2.10;;;;;;;;;;4989805;28;20258;-66
2023/08/14 09:56:23;;;;;;;4.80;2.08;;;;;;;;;;4988746;28;20318;-66
2023/08/14 09:58:48;;;;;;;3.08;1.88;;;;;;;;;;4989739;28;20622;-66
2023/08/14 10:01:14;;;;;;;4.57;1.80;;;;;;;;;;4989642;28;20615;-66
2023/08/14 10:03:41;;;;;;;3.70;1.83;;;;;;;;;;4990408;28;20314;-66
2023/08/14 10:06:06;;;;;;;6.10;2.83;;;;;;;;;;4990110;28;20228;-67
2023/08/14 10:08:34;;;;;;;6.03;2.08;;;;;;;;;;4990105;28;20712;-66
2023/08/14 10:11:02;;;;;;;4.85;1.85;;;;;;;;;;4985379;28;20274;-66
2023/08/14 10:13:28;;;;;;;4.03;1.92;;;;;;;;;;4989018;28;21461;-66
2023/08/14 10:15:55;;;;;;;6.90;1.60;;;;;;;;;;4990150;28;20208;-66
2023/08/14 10:18:22;;;;;;;1.67;1.45;;;;;;;;;;4989862;28;20179;-67
2023/08/14 10:20:48;;;;;;;3.35;1.40;;;;;;;;;;4990663;28;20191;-67
2023/08/14 10:23:14;;;;;;;4.40;2.25;;;;;;;;;;4989713;28;20186;-66
2023/08/14 10:25:40;;;;;;;3.42;1.30;;;;;;;;;;4990385;28;20584;-66
2023/08/14 10:28:07;;;;;;;4.40;1.27;;;;;;;;;;4989261;28;20704;-66
2023/08/14 10:30:33;;;;;;;2.90;1.20;;;;;;;;;;4988719;28;20996;-66
2023/08/14 10:32:59;;;;;;;3.88;2.17;;;;;;;;;;4988266;28;20207;-66
2023/08/14 10:35:25;;;;;;;3.92;1.63;;;;;;;;;;4990720;28;20205;-67
2023/08/14 10:37:51;;;;;;;6.72;1.50;;;;;;;;;;4990264;28;20194;-67
2023/08/14 10:40:21;;;;;;;2.70;1.25;;;;;;;;;;4990006;28;20183;-66
2023/08/14 10:42:47;;;;;;;7.75;2.35;;;;;;;;;;4989236;28;20191;-66
2023/08/14 10:45:17;;;;;;;4.50;1.33;;;;;;;;;;4989190;28;20219;-67
2023/08/14 10:47:42;;;;;;;6.25;1.38;;;;;;;;;;4989558;28;20183;-67
2023/08/14 10:50:20;;;;;;;2.72;1.25;;;;;;;;;;4989475;28;20197;-66
2023/08/14 10:52:46;;;;;;;2.78;1.17;;;;;;;;;;4990745;28;20197;-67
2023/08/14 10:55:18;;;;;;;2.97;1.45;;;;;;;;;;4988708;28;20541;-66
2023/08/14 10:57:44;;;;;;;2.72;1.20;;;;;;;;;;4987879;28;20242;-66
2023/08/14 11:00:25;;;;;;;3.40;1.20;;;;;;;;;;4987439;28;20187;-66
2023/08/14 11:03:11;;;;;;;4.53;1.30;;;;;;;;;;4987947;28;20186;-68
2023/08/14 11:05:37;;;;;;;5.07;1.20;;;;;;;;;;4987812;28;20224;-67
2023/08/14 11:08:03;;;;;;;3.20;1.05;;;;;;;;;;4989583;28;20588;-67
2023/08/14 11:10:28;;;;;;;4.82;0.77;;;;;;;;;;4979110;28;20194;-68
2023/08/14 11:12:56;;;;;;;5.93;1.05;;;;;;;;;;4985458;28;20204;-68
2023/08/14 11:15:21;;;;;;;5.30;1.33;;;;;;;;;;4988671;28;20199;-67
2023/08/14 11:17:47;;;;;;;1.25;0.80;;;;;;;;;;4987808;28;20237;-67
2023/08/14 11:20:13;;;;;;;3.90;0.82;;;;;;;;;;4987623;28;20894;-68
2023/08/14 11:22:38;;;;;;;2.42;0.68;;;;;;;;;;4988143;28;20187;-67
2023/08/14 11:25:05;;;;;;;1.60;0.70;;;;;;;;;;4988126;28;20265;-68
2023/08/14 11:27:30;;;;;;;5.43;1.25;;;;;;;;;;4988343;28;20190;-68
2023/08/14 11:29:55;;;;;;;4.50;1.23;;;;;;;;;;4988594;28;20186;-68
2023/08/14 11:32:20;;;;;;;3.00;1.13;;;;;;;;;;4988992;28;20443;-67
2023/08/14 11:34:46;;;;;;;3.03;0.93;;;;;;;;;;4987776;28;20464;-68
2023/08/14 11:37:11;;;;;;;3.78;1.05;;;;;;;;;;4987978;28;20187;-67
2023/08/14 11:39:36;;;;;;;6.05;1.48;;;;;;;;;;4987672;28;20776;-67
2023/08/14 11:42:03;;;;;;;3.38;0.95;;;;;;;;;;4988845;28;20191;-67
2023/08/14 11:44:28;;;;;;;8.30;1.67;;;;;;;;;;4986779;28;20562;-68
2023/08/14 11:46:53;;;;;;;1.50;1.15;;;;;;;;;;4988554;28;20202;-67
2023/08/14 11:49:18;;;;;;;4.30;1.20;;;;;;;;;;4988297;28;20675;-68
2023/08/14 11:51:44;;;;;;;3.33;1.10;;;;;;;;;;4988883;28;20183;-68
2023/08/14 11:54:10;;;;;;;2.25;1.05;;;;;;;;;;4987896;28;20467;-68
2023/08/14 11:56:37;;;;;;;4.28;1.30;;;;;;;;;;4986742;28;20210;-68
2023/08/14 11:59:02;;;;;;;4.45;1.73;;;;;;;;;;4988631;28;20211;-67
2023/08/14 12:01:28;;;;;;;3.00;1.33;;;;;;;;;;4987854;28;20274;-68
2023/08/14 12:03:53;;;;;;;1.33;1.03;;;;;;;;;;4989330;28;20562;-67
2023/08/14 12:06:18;;;;;;;3.43;1.27;;;;;;;;;;4987362;28;20467;-67
2023/08/14 12:08:43;;;;;;;5.95;1.50;;;;;;;;;;4977138;28;20187;-67
2023/08/14 12:11:09;;;;;;;2.75;0.95;;;;;;;;;;4987076;28;20546;-67
2023/08/14 12:13:34;;;;;;;4.60;1.35;;;;;;;;;;4988978;28;20211;-67
2023/08/14 12:16:06;;;;;;;4.95;1.25;;;;;;;;;;4987890;28;20575;-67
2023/08/14 12:18:31;;;;;;;4.05;1.20;;;;;;;;;;4988187;28;20303;-66
2023/08/14 12:20:56;;;;;;;8.60;1.17;;;;;;;;;;4989083;28;20228;-67
2023/08/14 12:23:22;;;;;;;6.03;1.13;;;;;;;;;;4992925;28;20191;-67
2023/08/14 12:25:48;;;;;;;5.68;1.73;;;;;;;;;;4992540;28;20269;-67
2023/08/14 12:28:13;;;;;;;3.95;1.05;;;;;;;;;;4991684;28;20198;-67
2023/08/14 12:30:38;;;;;;;1.98;0.95;;;;;;;;;;4992923;28;20187;-67
2023/08/14 12:33:04;;;;;;;3.88;1.20;;;;;;;;;;4989624;28;20466;-67
2023/08/14 12:35:29;;;;;;;4.35;1.25;;;;;;;;;;4990675;28;20630;-67
2023/08/14 12:37:54;;;;;;;4.07;1.00;;;;;;;;;;4991296;28;20297;-67
2023/08/14 12:40:19;;;;;;;4.55;1.40;;;;;;;;;;4985068;28;21004;-67
2023/08/14 12:42:45;;;;;;;3.63;1.33;;;;;;;;;;4990940;28;20187;-67
2023/08/14 12:45:10;;;;;;;7.60;1.35;;;;;;;;;;4991215;28;20447;-67
2023/08/14 12:47:35;;;;;;;6.63;1.20;;;;;;;;;;4991832;28;20226;-67
2023/08/14 12:50:00;;;;;;;3.93;1.30;;;;;;;;;;4991370;28;20180;-67
2023/08/14 12:52:26;;;;;;;2.10;1.13;;;;;;;;;;4991582;28;20412;-68
2023/08/14 12:54:51;;;;;;;3.20;1.38;;;;;;;;;;4991764;28;20461;-67
2023/08/14 12:57:16;;;;;;;4.53;1.73;;;;;;;;;;4978920;28;20192;-67
2023/08/14 12:59:41;;;;;;;2.20;0.93;;;;;;;;;;4973469;28;20440;-67
2023/08/14 13:02:07;;;;;;;3.03;1.33;;;;;;;;;;4976238;28;20182;-67
2023/08/14 13:04:32;;;;;;;3.80;0.93;;;;;;;;;;4985902;28;20420;-67
2023/08/14 13:06:57;;;;;;;5.13;1.03;;;;;;;;;;4990507;28;20425;-68
2023/08/14 13:09:23;;;;;;;5.63;1.40;;;;;;;;;;4990181;28;20520;-67
2023/08/14 13:11:48;;;;;;;3.72;1.10;;;;;;;;;;4989609;28;20669;-67
2023/08/14 13:14:13;;;;;;;3.23;1.30;;;;;;;;;;4991973;28;20234;-67
2023/08/14 13:16:38;;;;;;;4.17;1.33;;;;;;;;;;4991655;28;20535;-68
2023/08/14 13:19:03;;;;;;;4.47;1.07;;;;;;;;;;4991525;28;20465;-67
2023/08/14 13:21:29;;;;;;;4.95;1.40;;;;;;;;;;4986999;28;20555;-67
2023/08/14 13:23:54;;;;;;;3.85;1.10;;;;;;;;;;4991313;28;20680;-67
2023/08/14 13:26:20;;;;;;;3.13;1.10;;;;;;;;;;4991173;28;20211;-67
2023/08/14 13:28:45;;;;;;;2.90;1.15;;;;;;;;;;4989485;28;20441;-67
2023/08/14 13:31:10;;;;;;;2.25;1.40;;;;;;;;;;4990201;28;20222;-67
2023/08/14 13:33:35;;;;;;;3.00;0.90;;;;;;;;;;4991001;28;20224;-67
2023/08/14 13:36:01;;;;;;;2.77;1.07;;;;;;;;;;4996576;28;20199;-67
2023/08/14 13:38:26;;;;;;;4.10;1.33;;;;;;;;;;4990163;28;20424;-67
2023/08/14 13:40:52;;;;;;;6.07;1.20;;;;;;;;;;4991615;28;20709;-67
2023/08/14 13:43:17;;;;;;;4.78;1.30;;;;;;;;;;4989806;28;20882;-67
2023/08/14 13:45:42;;;;;;;3.93;1.30;;;;;;;;;;4990416;28;21091;-67
2023/08/14 13:48:07;;;;;;;2.97;1.33;;;;;;;;;;4988949;28;20432;-67
2023/08/14 13:50:32;;;;;;;2.93;0.80;;;;;;;;;;4987901;28;20293;-67
2023/08/14 13:52:58;;;;;;;4.07;1.07;;;;;;;;;;4989590;28;20194;-68
2023/08/14 13:55:25;;;;;;;4.32;1.40;;;;;;;;;;4990218;28;20441;-68
2023/08/14 13:57:50;;;;;;;6.53;1.30;;;;;;;;;;4988582;28;20309;-68
2023/08/14 14:00:15;;;;;;;2.13;1.03;;;;;;;;;;4988072;28;20183;-67
2023/08/14 14:02:40;;;;;;;3.88;1.05;;;;;;;;;;4988278;28;21023;-68
2023/08/14 14:05:06;;;;;;;4.57;1.13;;;;;;;;;;4988114;28;20683;-68
2023/08/14 14:07:32;;;;;;;5.15;1.45;;;;;;;;;;4990205;28;20487;-68
2023/08/14 14:09:57;;;;;;;3.05;1.20;;;;;;;;;;4995581;28;20193;-68
2023/08/14 14:12:22;;;;;;;3.30;1.00;;;;;;;;;;4994645;28;20187;-67
2023/08/14 14:14:48;;;;;;;4.75;1.30;;;;;;;;;;4995911;28;20463;-67
2023/08/14 14:17:13;;;;;;;4.67;1.40;;;;;;;;;;4991731;28;20187;-67
2023/08/14 14:19:39;;;;;;;3.40;1.00;;;;;;;;;;4992181;28;20409;-68
2023/08/14 14:22:04;;;;;;;3.00;1.20;;;;;;;;;;4991360;28;20187;-67
2023/08/14 14:24:31;;;;;;;2.80;0.93;;;;;;;;;;4980875;28;20198;-67
2023/08/14 14:26:57;;;;;;;4.00;1.73;;;;;;;;;;4985527;28;20810;-67
2023/08/14 14:29:23;;;;;;;4.00;1.23;;;;;;;;;;4990334;28;20218;-67